Torbert, Louisiana
Current Conditions -  °F | °C
As of 5:55 AM on Friday 28 Nov 2014 (Local Time) from KHZR Reporting Station
Clear Clear  
Wind Chill: 33°   Ceiling: Unl
Heat Index: 37°   Visibility: 10mi
Dew Point: 31°   Wind: 5mph
Humidity: 81%   Direction: 70°ENE
Pressure: 30.43"   Gusts: NA
Location:  30.55°N, 91.49°W
Report Text: KHZR 281155Z AUTO 07004KT 10SM CLR 03/00 A3043 RMK AO2 T00261003 10046 20025
Loading
Personal Weather Stations






























Interactive Weather Map New forecast layout! Learn more

10-Day Weather Forecast

Advertisements
Track Severe Weather on mobile